George, Washington
Current Conditions -  °F | °C
As of 6:53 PM on Sunday 23 Nov 2014 (Local Time) from KEPH Reporting Station
Clear Clear  
Wind Chill: 39°   Ceiling: Unl
Heat Index: 44°   Visibility: 10mi
Dew Point: 30°   Wind: 9mph
Humidity: 58%   Direction: 270°W
Pressure: 30.08"   Gusts: NA
Location:  47.08°N, 119.86°W
Report Text: KEPH 240253Z AUTO 27008KT 10SM CLR 07/M01 A3008 RMK AO2 SLP197 6//// T00671011 $
Loading
Personal Weather Stations






























Interactive Weather Map New forecast layout! Learn more

10-Day Weather Forecast

Advertisements
Track Severe Weather on mobile